createdAt,value
2022-11-02T00:02:10.778Z,100.00
2022-11-02T00:04:37.400Z,100.00
2022-11-02T00:07:04.041Z,100.00
2022-11-02T00:09:30.662Z,100.00
2022-11-02T00:11:57.230Z,100.00
2022-11-02T00:14:23.785Z,100.00
2022-11-02T00:16:50.673Z,100.00
2022-11-02T00:19:17.522Z,100.00
2022-11-02T00:21:44.329Z,100.00
2022-11-02T00:24:12.414Z,100.00
2022-11-02T00:26:39.056Z,100.00
2022-11-02T00:29:06.361Z,100.00
2022-11-02T00:31:32.939Z,100.00
2022-11-02T00:33:59.546Z,100.00
2022-11-02T00:36:26.427Z,100.00
2022-11-02T00:38:52.993Z,100.00
2022-11-02T00:41:20.612Z,100.00
2022-11-02T00:43:47.408Z,100.00
2022-11-02T00:46:14.551Z,100.00
2022-11-02T00:48:41.859Z,100.00
2022-11-02T00:51:09.337Z,100.00
2022-11-02T00:53:35.954Z,100.00
2022-11-02T00:56:02.581Z,100.00
2022-11-02T00:58:29.437Z,100.00
2022-11-02T01:00:56.592Z,100.00
2022-11-02T01:03:23.386Z,100.00
2022-11-02T01:05:50.005Z,100.00
2022-11-02T01:08:16.570Z,100.00
2022-11-02T01:10:45.633Z,100.00
2022-11-02T01:13:16.650Z,100.00
2022-11-02T01:15:43.229Z,100.00
2022-11-02T01:18:09.835Z,100.00
2022-11-02T01:20:36.413Z,100.00
2022-11-02T01:23:02.973Z,100.00
2022-11-02T01:25:29.519Z,100.00
2022-11-02T01:27:56.422Z,100.00
2022-11-02T01:30:22.977Z,100.00
2022-11-02T01:32:49.548Z,100.00
2022-11-02T01:35:16.798Z,100.00
2022-11-02T01:37:43.506Z,100.00
2022-11-02T01:40:10.747Z,100.00
2022-11-02T01:42:37.415Z,100.00
2022-11-02T01:45:04.272Z,100.00
2022-11-02T01:47:40.629Z,100.00
2022-11-02T01:50:19.173Z,100.00
2022-11-02T01:52:45.813Z,100.00
2022-11-02T01:55:20.432Z,100.00
2022-11-02T01:57:52.538Z,100.00
2022-11-02T02:00:20.492Z,100.00
2022-11-02T02:03:01.140Z,100.00
2022-11-02T02:05:29.688Z,100.00
2022-11-02T02:07:56.924Z,100.00
2022-11-02T02:10:23.564Z,100.00
2022-11-02T02:12:50.539Z,100.00
2022-11-02T02:15:23.280Z,100.00
2022-11-02T02:17:52.853Z,100.00
2022-11-02T02:20:51.381Z,100.00
2022-11-02T02:23:35.269Z,100.00
2022-11-02T02:26:20.585Z,100.00
2022-11-02T02:29:08.435Z,100.00
2022-11-02T02:31:43.004Z,100.00
2022-11-02T02:34:14.101Z,100.00
2022-11-02T02:36:51.668Z,100.00
2022-11-02T02:39:36.290Z,100.00
2022-11-02T02:42:13.777Z,100.00
2022-11-02T02:44:46.078Z,100.00
2022-11-02T02:47:17.493Z,100.00
2022-11-02T02:49:52.614Z,100.00
2022-11-02T02:52:21.783Z,100.00
2022-11-02T02:54:52.187Z,100.00
2022-11-02T02:57:24.391Z,100.00
2022-11-02T02:59:51.200Z,100.00
2022-11-02T03:02:25.473Z,100.00
2022-11-02T03:04:52.859Z,100.00
2022-11-02T03:07:34.035Z,100.00
2022-11-02T03:10:09.308Z,100.00
2022-11-02T03:12:48.104Z,100.00
2022-11-02T03:15:34.677Z,100.00
2022-11-02T03:18:23.970Z,100.00
2022-11-02T03:20:58.981Z,100.00
2022-11-02T03:23:35.618Z,100.00
2022-11-02T03:26:09.087Z,100.00
2022-11-02T03:29:04.756Z,100.00
2022-11-02T03:31:43.213Z,100.00
2022-11-02T03:34:23.054Z,100.00
2022-11-02T03:37:06.609Z,100.00
2022-11-02T03:39:38.350Z,100.00
2022-11-02T03:42:07.114Z,100.00
2022-11-02T03:44:39.702Z,100.00
2022-11-02T03:47:12.923Z,100.00
2022-11-02T03:49:42.856Z,100.00
2022-11-02T03:52:14.759Z,100.00
2022-11-02T03:54:53.732Z,100.00
2022-11-02T03:57:26.959Z,100.00
2022-11-02T03:59:53.582Z,100.00
2022-11-02T04:02:20.280Z,100.00
2022-11-02T04:04:52.128Z,100.00
2022-11-02T04:07:27.282Z,100.00
2022-11-02T04:09:53.865Z,100.00
2022-11-02T04:12:39.577Z,100.00
2022-11-02T04:15:07.645Z,100.00
2022-11-02T04:17:53.118Z,100.00
2022-11-02T04:20:19.702Z,100.00
2022-11-02T04:23:05.518Z,100.00
2022-11-02T04:25:32.186Z,100.00
2022-11-02T04:28:14.430Z,100.00
2022-11-02T04:30:48.213Z,100.00
2022-11-02T04:33:34.439Z,100.00
2022-11-02T04:36:15.788Z,100.00
2022-11-02T04:38:44.784Z,100.00
2022-11-02T04:41:43.661Z,100.00
2022-11-02T04:44:16.971Z,100.00
2022-11-02T04:46:51.774Z,100.00
2022-11-02T04:49:19.167Z,100.00
2022-11-02T04:51:49.727Z,100.00
2022-11-02T04:54:18.614Z,100.00
2022-11-02T04:56:47.873Z,100.00
2022-11-02T04:59:15.830Z,100.00
2022-11-02T05:01:42.901Z,100.00
2022-11-02T05:04:10.296Z,100.00
2022-11-02T05:06:37.304Z,100.00
2022-11-02T05:09:04.353Z,100.00
2022-11-02T05:11:32.706Z,100.00
2022-11-02T05:13:59.998Z,100.00
2022-11-02T05:16:28.464Z,100.00
2022-11-02T05:18:55.086Z,100.00
2022-11-02T05:21:23.237Z,100.00
2022-11-02T05:23:51.074Z,100.00
2022-11-02T05:26:18.006Z,100.00
2022-11-02T05:28:47.650Z,100.00
2022-11-02T05:31:14.318Z,100.00
2022-11-02T05:33:40.921Z,100.00
2022-11-02T05:36:12.834Z,100.00
2022-11-02T05:38:42.849Z,100.00
2022-11-02T05:41:09.945Z,100.00
2022-11-02T05:43:38.968Z,100.00
2022-11-02T05:46:07.717Z,100.00
2022-11-02T05:48:34.367Z,100.00
2022-11-02T05:51:03.860Z,100.00
2022-11-02T05:53:32.538Z,100.00
2022-11-02T05:56:00.272Z,100.00
2022-11-02T05:58:28.060Z,100.00
2022-11-02T06:00:54.750Z,100.00
2022-11-02T06:03:21.321Z,100.00
2022-11-02T06:05:47.972Z,100.00
2022-11-02T06:08:14.561Z,100.00
2022-11-02T06:10:43.236Z,100.00
2022-11-02T06:13:10.260Z,100.00
2022-11-02T06:15:36.871Z,100.00
2022-11-02T06:18:03.537Z,100.00
2022-11-02T06:20:30.101Z,100.00
2022-11-02T06:22:56.895Z,100.00
2022-11-02T06:25:23.502Z,100.00
2022-11-02T06:27:53.018Z,100.00
2022-11-02T06:30:20.105Z,100.00
2022-11-02T06:32:48.264Z,100.00
2022-11-02T06:35:15.953Z,100.00
2022-11-02T06:37:42.780Z,100.00
2022-11-02T06:40:10.729Z,100.00
2022-11-02T06:42:44.831Z,100.00
2022-11-02T06:45:17.398Z,100.00
2022-11-02T06:47:43.991Z,100.00
2022-11-02T06:50:10.736Z,100.00
2022-11-02T06:52:43.243Z,100.00
2022-11-02T06:55:09.921Z,100.00
2022-11-02T06:57:37.699Z,100.00
2022-11-02T07:00:06.685Z,100.00
2022-11-02T07:02:33.511Z,100.00
2022-11-02T07:05:00.160Z,100.00
2022-11-02T07:07:26.783Z,100.00
2022-11-02T07:09:53.326Z,100.00
2022-11-02T07:12:23.064Z,100.00
2022-11-02T07:14:50.033Z,100.00
2022-11-02T07:17:16.572Z,100.00
2022-11-02T07:19:43.129Z,100.00
2022-11-02T07:22:10.290Z,100.00
2022-11-02T07:24:36.852Z,100.00
2022-11-02T07:27:03.517Z,100.00
2022-11-02T07:29:30.072Z,100.00
2022-11-02T07:31:56.723Z,100.00
2022-11-02T07:34:23.378Z,100.00
2022-11-02T07:36:49.962Z,100.00
2022-11-02T07:39:17.755Z,100.00
2022-11-02T07:41:49.338Z,100.00
2022-11-02T07:44:18.257Z,100.00
2022-11-02T07:46:53.797Z,100.00
2022-11-02T07:49:21.597Z,100.00
2022-11-02T07:51:48.898Z,100.00
2022-11-02T07:54:15.500Z,100.00
2022-11-02T07:56:43.942Z,100.00
2022-11-02T07:59:11.147Z,100.00
2022-11-02T08:01:37.740Z,100.00
2022-11-02T08:04:04.555Z,100.00
2022-11-02T08:06:31.167Z,100.00
2022-11-02T08:08:57.756Z,100.00
2022-11-02T08:11:24.318Z,100.00
2022-11-02T08:13:50.926Z,100.00
2022-11-02T08:16:17.524Z,100.00
2022-11-02T08:18:44.089Z,100.00
2022-11-02T08:21:10.651Z,100.00
2022-11-02T08:23:37.226Z,100.00
2022-11-02T08:26:03.809Z,100.00
2022-11-02T08:28:32.182Z,100.00
2022-11-02T08:30:59.447Z,100.00
2022-11-02T08:33:26.221Z,100.00
2022-11-02T08:35:53.646Z,100.00
2022-11-02T08:38:23.546Z,100.00
2022-11-02T08:40:50.120Z,100.00
2022-11-02T08:43:16.686Z,100.00
2022-11-02T08:48:32.100Z,100.00
2022-11-02T08:50:58.819Z,100.00
2022-11-02T08:53:25.371Z,100.00
2022-11-02T08:55:51.934Z,100.00
2022-11-02T08:58:18.597Z,100.00
2022-11-02T09:00:45.477Z,100.00
2022-11-02T09:03:14.221Z,100.00
2022-11-02T09:05:45.668Z,100.00
2022-11-02T09:08:19.247Z,100.00
2022-11-02T09:10:51.825Z,100.00
2022-11-02T09:13:22.075Z,100.00
2022-11-02T09:15:56.737Z,100.00
2022-11-02T09:18:23.865Z,100.00
2022-11-02T09:20:51.491Z,100.00
2022-11-02T09:23:20.339Z,100.00
2022-11-02T09:25:47.829Z,100.00
2022-11-02T09:28:15.657Z,100.00
2022-11-02T09:30:42.934Z,100.00
2022-11-02T09:33:09.934Z,100.00
2022-11-02T09:35:42.635Z,100.00
2022-11-02T09:38:09.195Z,100.00
2022-11-02T09:40:45.989Z,100.00
2022-11-02T09:43:49.487Z,100.00
2022-11-02T09:46:19.858Z,100.00
2022-11-02T09:48:52.692Z,100.00
2022-11-02T09:51:23.401Z,100.00
2022-11-02T09:54:17.642Z,100.00
2022-11-02T09:56:45.938Z,99.06
2022-11-02T09:59:26.149Z,98.76
2022-11-02T10:02:04.756Z,100.00
2022-11-02T10:04:49.309Z,100.00
2022-11-02T10:07:53.235Z,100.00
2022-11-02T10:10:22.783Z,100.00
2022-11-02T10:13:22.480Z,100.00
2022-11-02T10:16:00.309Z,100.00
2022-11-02T10:18:29.887Z,100.00
2022-11-02T10:20:59.385Z,100.00
2022-11-02T10:23:38.029Z,100.00
2022-11-02T10:26:04.763Z,100.00
2022-11-02T10:28:36.373Z,100.00
2022-11-02T10:31:03.607Z,100.00
2022-11-02T10:33:31.925Z,100.00
2022-11-02T10:36:17.394Z,100.00
2022-11-02T10:39:01.450Z,100.00
2022-11-02T10:41:54.534Z,100.00
2022-11-02T10:45:30.589Z,100.00
2022-11-02T10:48:15.422Z,100.00
2022-11-02T10:50:48.909Z,100.00
2022-11-02T10:53:40.067Z,100.00
2022-11-02T10:56:21.756Z,100.00
2022-11-02T10:59:09.168Z,100.00
2022-11-02T11:01:36.103Z,100.00
2022-11-02T11:04:05.354Z,100.00
2022-11-02T11:06:37.674Z,100.00
2022-11-02T11:09:06.050Z,100.00
2022-11-02T11:11:38.253Z,100.00
2022-11-02T11:20:25.966Z,97.05
2022-11-02T11:23:23.402Z,98.01
2022-11-02T11:26:13.996Z,99.12
2022-11-02T11:28:53.499Z,96.30
2022-11-02T11:31:20.852Z,97.75
2022-11-02T11:33:50.935Z,96.57
2022-11-02T11:36:35.560Z,100.00
2022-11-02T11:39:21.781Z,93.21
2022-11-02T11:41:48.471Z,92.20
2022-11-02T11:44:16.078Z,91.02
2022-11-02T11:46:46.624Z,94.37
2022-11-02T11:52:29.916Z,96.23
2022-11-02T11:55:22.475Z,99.20
2022-11-02T11:58:07.857Z,99.65
2022-11-02T12:00:34.779Z,98.55
2022-11-02T12:03:07.669Z,99.12
2022-11-02T12:05:41.491Z,95.40
2022-11-02T12:08:23.272Z,99.79
2022-11-02T12:10:58.948Z,99.69
2022-11-02T12:14:02.220Z,99.29
2022-11-02T12:16:51.301Z,100.00
2022-11-02T12:19:33.868Z,100.00
2022-11-02T12:22:27.010Z,100.00
2022-11-02T12:25:27.736Z,95.75
2022-11-02T12:28:03.425Z,98.32
2022-11-02T12:31:00.143Z,99.58
2022-11-02T12:33:40.771Z,100.00
2022-11-02T12:36:26.248Z,100.00
2022-11-02T12:38:53.521Z,100.00
2022-11-02T12:41:29.472Z,100.00
2022-11-02T12:44:11.657Z,100.00
2022-11-02T12:47:10.052Z,100.00
2022-11-02T12:50:15.662Z,100.00
2022-11-02T12:53:17.442Z,99.64
2022-11-02T12:55:49.050Z,100.00
2022-11-02T12:58:21.822Z,100.00
2022-11-02T13:00:55.091Z,100.00
2022-11-02T13:03:57.981Z,99.12
2022-11-02T13:06:34.087Z,98.66
2022-11-02T13:09:18.495Z,100.00
2022-11-02T13:11:54.405Z,100.00
2022-11-02T13:14:22.830Z,100.00
2022-11-02T13:16:55.885Z,100.00
2022-11-02T13:19:29.150Z,98.89
2022-11-02T13:21:57.994Z,100.00
2022-11-02T13:24:33.696Z,96.60
2022-11-02T13:27:21.736Z,96.53
2022-11-02T13:29:57.616Z,99.13
2022-11-02T13:32:36.680Z,100.00
2022-11-02T13:35:14.153Z,100.00
2022-11-02T13:37:46.902Z,100.00
2022-11-02T13:40:38.128Z,100.00
2022-11-02T13:43:35.029Z,100.00
2022-11-02T13:46:23.338Z,100.00
2022-11-02T13:48:59.197Z,99.21
2022-11-02T13:51:42.804Z,100.00
2022-11-02T13:54:19.474Z,100.00
2022-11-02T13:56:51.540Z,100.00
2022-11-02T13:59:31.912Z,100.00
2022-11-02T14:02:02.682Z,100.00
2022-11-02T14:04:38.423Z,100.00
2022-11-02T14:07:09.204Z,100.00
2022-11-02T14:09:40.628Z,100.00
2022-11-02T14:12:22.376Z,100.00
2022-11-02T14:15:13.988Z,100.00
2022-11-02T14:17:56.383Z,100.00
2022-11-02T14:20:39.659Z,100.00
2022-11-02T14:23:26.463Z,100.00
2022-11-02T14:25:55.310Z,100.00
2022-11-02T14:28:22.063Z,100.00
2022-11-02T14:30:49.221Z,100.00
2022-11-02T14:33:29.604Z,100.00
2022-11-02T14:36:02.254Z,100.00
2022-11-02T14:39:06.252Z,100.00
2022-11-02T14:42:16.363Z,100.00
2022-11-02T14:44:45.950Z,100.00
2022-11-02T14:47:18.529Z,100.00
2022-11-02T14:49:56.411Z,100.00
2022-11-02T14:52:33.723Z,100.00
2022-11-02T14:55:02.338Z,100.00
2022-11-02T14:57:42.581Z,100.00
2022-11-02T15:00:21.438Z,100.00
2022-11-02T15:02:49.328Z,100.00
2022-11-02T15:05:38.571Z,100.00
2022-11-02T15:08:08.865Z,100.00
2022-11-02T15:10:39.894Z,100.00
2022-11-02T15:13:34.176Z,100.00
2022-11-02T15:16:00.667Z,100.00
2022-11-02T15:18:30.177Z,100.00
2022-11-02T15:21:26.872Z,100.00
2022-11-02T15:24:02.759Z,100.00
2022-11-02T15:26:41.618Z,100.00
2022-11-02T15:29:30.456Z,100.00
2022-11-02T15:31:58.315Z,100.00
2022-11-02T15:34:33.449Z,100.00
2022-11-02T15:37:00.706Z,100.00
2022-11-02T15:39:27.736Z,100.00
2022-11-02T15:42:03.832Z,100.00
2022-11-02T15:44:50.492Z,100.00
2022-11-02T15:47:36.915Z,100.00
2022-11-02T15:50:19.999Z,100.00
2022-11-02T15:53:22.199Z,100.00
2022-11-02T15:56:07.160Z,100.00
2022-11-02T15:58:52.047Z,100.00
2022-11-02T16:01:26.999Z,100.00
2022-11-02T16:03:58.784Z,100.00
2022-11-02T16:06:29.575Z,100.00
2022-11-02T16:09:01.476Z,100.00
2022-11-02T16:11:28.847Z,100.00
2022-11-02T16:14:16.199Z,100.00
2022-11-02T16:16:48.157Z,100.00
2022-11-02T16:19:21.944Z,100.00
2022-11-02T16:21:49.502Z,100.00
2022-11-02T16:24:16.908Z,100.00
2022-11-02T16:26:45.265Z,100.00
2022-11-02T16:29:19.360Z,100.00
2022-11-02T16:31:45.956Z,100.00
2022-11-02T16:34:18.687Z,100.00
2022-11-02T16:36:46.202Z,100.00
2022-11-02T16:39:21.507Z,100.00
2022-11-02T16:41:55.764Z,100.00
2022-11-02T16:44:26.536Z,100.00
2022-11-02T16:47:08.442Z,100.00
2022-11-02T16:49:56.395Z,100.00
2022-11-02T16:52:27.510Z,100.00
2022-11-02T16:54:54.094Z,100.00
2022-11-02T16:57:33.940Z,100.00
2022-11-02T17:00:05.039Z,100.00
2022-11-02T17:02:41.652Z,100.00
2022-11-02T17:05:27.153Z,100.00
2022-11-02T17:08:08.367Z,100.00
2022-11-02T17:10:37.670Z,100.00
2022-11-02T17:13:09.153Z,100.00
2022-11-02T17:15:37.469Z,100.00
2022-11-02T17:18:10.050Z,100.00
2022-11-02T17:20:38.470Z,100.00
2022-11-02T17:23:08.068Z,100.00
2022-11-02T17:25:37.357Z,100.00
2022-11-02T17:28:38.826Z,100.00
2022-11-02T17:31:17.911Z,100.00
2022-11-02T17:33:44.780Z,100.00
2022-11-02T17:36:11.601Z,100.00
2022-11-02T17:38:38.677Z,100.00
2022-11-02T17:41:28.342Z,100.00
2022-11-02T17:43:54.880Z,100.00
2022-11-02T17:46:21.473Z,100.00
2022-11-02T17:48:48.099Z,100.00
2022-11-02T17:51:15.399Z,100.00
2022-11-02T17:53:42.455Z,100.00
2022-11-02T17:56:11.059Z,100.00
2022-11-02T17:58:37.733Z,100.00
2022-11-02T18:01:05.303Z,100.00
2022-11-02T18:03:32.002Z,100.00
2022-11-02T18:06:00.304Z,100.00
2022-11-02T18:08:27.496Z,100.00
2022-11-02T18:10:54.591Z,100.00
2022-11-02T18:13:23.408Z,100.00
2022-11-02T18:15:50.355Z,100.00
2022-11-02T18:18:17.001Z,100.00
2022-11-02T18:20:43.573Z,100.00
2022-11-02T18:23:16.572Z,100.00
2022-11-02T18:25:43.383Z,100.00
2022-11-02T18:28:10.040Z,100.00
2022-11-02T18:30:36.596Z,100.00
2022-11-02T18:33:03.210Z,100.00
2022-11-02T18:35:29.789Z,100.00
2022-11-02T18:37:56.815Z,100.00
2022-11-02T18:40:23.513Z,100.00
2022-11-02T18:42:50.304Z,100.00
2022-11-02T18:45:18.480Z,100.00
2022-11-02T18:47:45.190Z,100.00
2022-11-02T18:50:13.480Z,100.00
2022-11-02T18:52:41.824Z,100.00
2022-11-02T18:55:08.664Z,100.00
2022-11-02T18:57:35.240Z,100.00
2022-11-02T19:00:02.856Z,100.00
2022-11-02T19:02:30.001Z,100.00
2022-11-02T19:04:56.729Z,100.00
2022-11-02T19:07:42.120Z,100.00
2022-11-02T19:10:09.822Z,100.00
2022-11-02T19:12:36.724Z,100.00
2022-11-02T19:15:03.834Z,100.00
2022-11-02T19:17:30.491Z,100.00
2022-11-02T19:19:57.436Z,100.00
2022-11-02T19:22:26.136Z,100.00
2022-11-02T19:24:53.072Z,100.00
2022-11-02T19:27:22.260Z,100.00
2022-11-02T19:29:49.028Z,100.00
2022-11-02T19:32:16.084Z,100.00
2022-11-02T19:34:43.077Z,100.00
2022-11-02T19:37:10.015Z,100.00
2022-11-02T19:39:36.796Z,100.00
2022-11-02T19:42:03.569Z,100.00
2022-11-02T19:44:30.782Z,100.00
2022-11-02T19:46:57.530Z,100.00
2022-11-02T19:49:27.118Z,100.00
2022-11-02T19:51:53.836Z,100.00
2022-11-02T19:54:20.617Z,100.00
2022-11-02T19:56:47.187Z,100.00
2022-11-02T19:59:13.786Z,100.00
2022-11-02T20:01:45.071Z,100.00
2022-11-02T20:04:11.740Z,100.00
2022-11-02T20:06:40.846Z,100.00
2022-11-02T20:09:14.634Z,100.00
2022-11-02T20:11:45.156Z,100.00
2022-11-02T20:14:13.310Z,100.00
2022-11-02T20:16:40.150Z,100.00
2022-11-02T20:19:07.236Z,100.00
2022-11-02T20:21:38.290Z,100.00
2022-11-02T20:24:08.241Z,100.00
2022-11-02T20:26:36.678Z,100.00
2022-11-02T20:29:04.880Z,100.00
2022-11-02T20:31:39.210Z,100.00
2022-11-02T20:34:08.174Z,100.00
2022-11-02T20:36:34.964Z,100.00
2022-11-02T20:39:04.584Z,100.00
2022-11-02T20:41:31.278Z,100.00
2022-11-02T20:43:57.875Z,100.00
2022-11-02T20:46:42.917Z,100.00
2022-11-02T20:49:22.859Z,100.00
2022-11-02T20:51:58.180Z,100.00
2022-11-02T20:54:26.148Z,100.00
2022-11-02T20:56:52.763Z,100.00
2022-11-02T20:59:19.366Z,100.00
2022-11-02T21:01:46.220Z,100.00
2022-11-02T21:04:18.618Z,100.00
2022-11-02T21:06:47.090Z,100.00
2022-11-02T21:09:13.692Z,100.00
2022-11-02T21:11:58.879Z,100.00
2022-11-02T21:14:25.460Z,100.00
2022-11-02T21:16:52.078Z,100.00
2022-11-02T21:19:18.631Z,100.00
2022-11-02T21:21:45.260Z,100.00
2022-11-02T21:24:12.130Z,100.00
2022-11-02T21:26:38.675Z,100.00
2022-11-02T21:29:05.325Z,100.00
2022-11-02T21:31:31.902Z,100.00
2022-11-02T21:33:58.522Z,100.00
2022-11-02T21:36:25.173Z,100.00
2022-11-02T21:38:51.736Z,100.00
2022-11-02T21:41:26.484Z,100.00
2022-11-02T21:43:55.418Z,100.00
2022-11-02T21:46:22.381Z,100.00
2022-11-02T21:48:49.014Z,100.00
2022-11-02T21:51:18.793Z,100.00
2022-11-02T21:53:47.456Z,100.00
2022-11-02T21:56:19.262Z,100.00
2022-11-02T21:58:46.675Z,100.00
2022-11-02T22:01:35.778Z,100.00
2022-11-02T22:04:03.245Z,100.00
2022-11-02T22:06:31.694Z,100.00
2022-11-02T22:08:59.965Z,100.00
2022-11-02T22:11:27.553Z,100.00
2022-11-02T22:13:58.692Z,100.00
2022-11-02T22:16:34.855Z,100.00
2022-11-02T22:19:06.556Z,100.00
2022-11-02T22:21:36.296Z,100.00
2022-11-02T22:24:03.500Z,100.00
2022-11-02T22:26:31.092Z,100.00
2022-11-02T22:28:58.017Z,100.00
2022-11-02T22:31:27.069Z,100.00
2022-11-02T22:33:55.673Z,100.00
2022-11-02T22:36:24.985Z,100.00
2022-11-02T22:38:53.543Z,100.00
2022-11-02T22:41:23.203Z,100.00
2022-11-02T22:43:58.417Z,100.00
2022-11-02T22:46:27.142Z,100.00
2022-11-02T22:48:55.866Z,100.00
2022-11-02T22:51:25.071Z,100.00
2022-11-02T22:53:52.474Z,100.00
2022-11-02T22:56:21.088Z,100.00
2022-11-02T22:58:48.835Z,100.00
2022-11-02T23:01:20.879Z,100.00
2022-11-02T23:03:48.600Z,100.00
2022-11-02T23:06:16.300Z,100.00
2022-11-02T23:08:48.394Z,100.00
2022-11-02T23:11:23.442Z,100.00
2022-11-02T23:13:57.415Z,100.00
2022-11-02T23:16:29.177Z,100.00
2022-11-02T23:19:20.412Z,100.00
2022-11-02T23:22:28.432Z,100.00
2022-11-02T23:25:13.712Z,100.00
2022-11-02T23:28:12.510Z,100.00
2022-11-02T23:30:58.289Z,100.00
2022-11-02T23:33:29.793Z,100.00
2022-11-02T23:36:12.285Z,100.00
2022-11-02T23:38:58.752Z,100.00
2022-11-02T23:41:25.954Z,100.00
2022-11-02T23:44:11.215Z,100.00
2022-11-02T23:46:38.962Z,100.00
2022-11-02T23:49:05.565Z,100.00
2022-11-02T23:51:50.630Z,100.00
2022-11-02T23:54:36.135Z,100.00
2022-11-02T23:57:02.753Z,100.00
2022-11-02T23:59:29.383Z,100.00
